Time;durP1;ratioP1;P1;durP2;ratioP2;P2;SDS_P1;SDS_P2;PMS_P1;PMS_P2;Temp;Humidity;BMP_temperature;BMP_pressure;BME280_temperature;BME280_humidity;BME280_pressure;Samples;Min_cycle;Max_cycle;Signal;HPM_P1;HPM_P2
2022/09/04 00:09:33;;;;;;;0.20;0.10;;;23.30;99.90;;;;;;26044315;22;20184;-72
2022/09/04 00:19:43;;;;;;;0.20;0.00;;;23.20;99.90;;;;;;26015871;22;20184;-71
2022/09/04 00:29:54;;;;;;;0.20;0.10;;;23.20;99.90;;;;;;26043308;22;20170;-71
2022/09/04 00:40:04;;;;;;;0.20;0.00;;;23.10;99.90;;;;;;26016339;22;20195;-72
2022/09/04 00:50:26;;;;;;;0.20;0.00;;;23.10;99.90;;;;;;26014264;22;20192;-71
2022/09/04 01:00:31;;;;;;;0.20;0.00;;;22.70;99.90;;;;;;26044237;22;20180;-72
2022/09/04 01:10:43;;;;;;;0.20;0.00;;;22.70;99.90;;;;;;26043293;22;20190;-72
2022/09/04 01:21:18;;;;;;;0.20;0.00;;;22.90;99.90;;;;;;26043181;22;20179;-71
2022/09/04 01:31:32;;;;;;;0.20;0.00;;;22.80;99.90;;;;;;26042025;22;20160;-71
2022/09/04 01:41:40;;;;;;;0.20;0.00;;;22.70;99.90;;;;;;26013313;22;20195;-70
2022/09/04 01:51:56;;;;;;;0.20;0.00;;;22.80;99.90;;;;;;26042462;22;20194;-72
2022/09/04 02:02:10;;;;;;;0.20;0.00;;;22.90;99.90;;;;;;26041626;22;20180;-72
2022/09/04 02:12:27;;;;;;;0.20;0.00;;;23.20;99.90;;;;;;26039822;22;20194;-72
2022/09/04 02:22:43;;;;;;;0.20;0.00;;;23.40;99.90;;;;;;26013202;22;20202;-72
2022/09/04 02:32:56;;;;;;;0.20;0.00;;;23.50;99.90;;;;;;26043954;22;20216;-72
2022/09/04 02:43:15;;;;;;;0.20;0.00;;;23.70;99.90;;;;;;26049381;22;20186;-71
2022/09/04 02:53:29;;;;;;;0.20;0.00;;;23.70;99.90;;;;;;26047529;22;20192;-71
2022/09/04 03:03:42;;;;;;;0.20;0.00;;;23.50;99.90;;;;;;26019618;22;20287;-71
2022/09/04 03:13:56;;;;;;;0.20;0.00;;;23.30;99.90;;;;;;26048620;22;20203;-71
2022/09/04 03:24:07;;;;;;;0.20;0.00;;;23.20;99.90;;;;;;26018614;22;20180;-72
2022/09/04 03:34:24;;;;;;;0.20;0.00;;;23.00;99.90;;;;;;26046609;22;20178;-72
2022/09/04 03:44:39;;;;;;;0.20;0.00;;;23.00;99.90;;;;;;26017008;22;20176;-72
2022/09/04 03:54:58;;;;;;;0.20;0.00;;;22.90;99.90;;;;;;26045114;22;20188;-72
2022/09/04 04:05:26;;;;;;;0.20;0.00;;;22.70;99.90;;;;;;26044891;22;20187;-71
2022/09/04 04:15:44;;;;;;;0.20;0.00;;;22.80;99.90;;;;;;26040094;22;20194;-71
2022/09/04 04:26:07;;;;;;;0.20;0.00;;;22.80;99.90;;;;;;26044291;22;20191;-71
2022/09/04 04:36:23;;;;;;;0.20;0.00;;;22.70;99.90;;;;;;26044432;22;20164;-72
2022/09/04 04:46:44;;;;;;;0.20;0.10;;;22.70;99.90;;;;;;26043604;22;20231;-71
2022/09/04 04:56:55;;;;;;;0.20;0.00;;;22.70;99.90;;;;;;26043088;22;20198;-70
2022/09/04 05:07:07;;;;;;;0.20;0.00;;;22.60;99.90;;;;;;26041642;22;20270;-71
2022/09/04 05:17:23;;;;;;;0.20;0.00;;;22.70;99.90;;;;;;26042619;22;20613;-71
2022/09/04 05:27:48;;;;;;;0.20;0.00;;;22.60;99.90;;;;;;26015162;22;20251;-72
2022/09/04 05:38:01;;;;;;;0.20;0.00;;;22.70;99.90;;;;;;26041630;22;20180;-71
2022/09/04 05:48:13;;;;;;;0.20;0.00;;;22.80;99.90;;;;;;26042167;22;20200;-71
2022/09/04 05:58:44;;;;;;;0.20;0.00;;;22.90;99.90;;;;;;26016163;22;20179;-73
2022/09/04 06:09:12;;;;;;;0.20;0.00;;;23.10;99.90;;;;;;26016738;22;20176;-72
2022/09/04 06:19:35;;;;;;;0.20;0.00;;;23.30;99.90;;;;;;26048383;22;20234;-71
2022/09/04 06:30:10;;;;;;;0.20;0.00;;;23.50;99.90;;;;;;26020624;22;20160;-72
2022/09/04 06:40:37;;;;;;;0.20;0.00;;;23.70;99.90;;;;;;26012056;22;20184;-72
2022/09/04 06:50:52;;;;;;;0.20;0.00;;;23.80;99.90;;;;;;26047366;22;20180;-72
2022/09/04 07:01:04;;;;;;;0.20;0.00;;;23.80;99.90;;;;;;26047040;22;20183;-74
2022/09/04 07:11:19;;;;;;;0.20;0.00;;;24.10;99.90;;;;;;26020653;22;20183;-72
2022/09/04 07:21:30;;;;;;;0.20;0.00;;;24.30;99.90;;;;;;26045017;22;20184;-72
2022/09/04 07:31:39;;;;;;;0.20;0.00;;;24.80;99.90;;;;;;26045126;22;20167;-71
2022/09/04 07:41:53;;;;;;;0.20;0.00;;;25.20;99.90;;;;;;26043620;22;20180;-71
2022/09/04 07:52:02;;;;;;;0.20;0.00;;;25.40;99.90;;;;;;26043941;22;20263;-71
2022/09/04 08:02:25;;;;;;;0.20;0.00;;;25.60;99.90;;;;;;26044008;22;20187;-71
2022/09/04 08:13:01;;;;;;;0.20;0.00;;;26.10;99.90;;;;;;26018294;22;20195;-71
2022/09/04 08:23:27;;;;;;;0.20;0.10;;;26.40;99.90;;;;;;26017402;22;20180;-71
2022/09/04 08:34:14;;;;;;;0.20;0.00;;;26.90;99.90;;;;;;25993093;22;20164;-72
2022/09/04 08:45:03;;;;;;;0.20;0.00;;;27.20;99.90;;;;;;25987804;22;20198;-72
2022/09/04 08:55:32;;;;;;;0.20;0.00;;;27.40;99.90;;;;;;26043121;22;20192;-71
2022/09/04 09:06:05;;;;;;;0.20;0.00;;;27.20;99.90;;;;;;26015394;22;20207;-72
2022/09/04 09:16:23;;;;;;;0.20;0.00;;;27.30;99.90;;;;;;26014269;22;20171;-70
2022/09/04 09:26:30;;;;;;;0.20;0.00;;;27.50;99.90;;;;;;26039464;22;20184;-73
2022/09/04 09:37:01;;;;;;;0.20;0.00;;;27.70;99.90;;;;;;26039864;22;20161;-72
2022/09/04 09:47:43;;;;;;;0.20;0.00;;;28.10;99.90;;;;;;26011843;22;20622;-70
2022/09/04 09:58:26;;;;;;;0.20;0.00;;;28.20;99.90;;;;;;25883172;23;20165;-72
2022/09/04 10:08:52;;;;;;;0.20;0.00;;;28.30;99.90;;;;;;25882232;23;20172;-72
2022/09/04 10:19:24;;;;;;;0.20;0.00;;;28.40;99.90;;;;;;25908886;23;20192;-71
2022/09/04 10:29:49;;;;;;;0.20;0.00;;;28.80;99.90;;;;;;25909697;23;20165;-71
2022/09/04 10:50:56;;;;;;;0.20;0.00;;;29.40;99.90;;;;;;25933398;22;20215;-71
2022/09/04 11:01:26;;;;;;;0.20;0.00;;;29.90;99.90;;;;;;26014758;22;20191;-71
2022/09/04 11:12:04;;;;;;;0.20;0.00;;;30.90;99.90;;;;;;26042431;22;20188;-69
2022/09/04 11:22:43;;;;;;;0.20;0.00;;;31.30;99.90;;;;;;26018071;22;20180;-71
2022/09/04 11:33:21;;;;;;;0.20;0.00;;;30.40;99.90;;;;;;26042863;22;20170;-72
2022/09/04 11:44:01;;;;;;;0.20;0.00;;;31.20;99.90;;;;;;26043063;22;20172;-71
2022/09/04 11:54:40;;;;;;;0.20;0.00;;;29.90;99.90;;;;;;26013242;22;20200;-71
2022/09/04 12:05:07;;;;;;;0.20;0.10;;;29.80;99.90;;;;;;26040940;22;20197;-71
2022/09/04 12:15:53;;;;;;;0.20;0.00;;;29.60;99.90;;;;;;26015020;22;20164;-71
2022/09/04 12:26:43;;;;;;;0.20;0.00;;;30.60;99.90;;;;;;26039051;22;20188;-72
2022/09/04 12:37:22;;;;;;;0.20;0.00;;;30.30;99.90;;;;;;25976647;22;20172;-68
2022/09/04 12:47:40;;;;;;;0.20;0.00;;;32.40;99.90;;;;;;26041292;22;20176;-72
2022/09/04 12:57:55;;;;;;;0.20;0.00;;;33.40;99.90;;;;;;26042141;22;20175;-72
2022/09/04 13:08:08;;;;;;;0.20;0.00;;;33.50;99.90;;;;;;26040652;22;20769;-71
2022/09/04 13:18:24;;;;;;;0.20;0.00;;;33.30;99.90;;;;;;26037216;22;20170;-72
2022/09/04 13:28:44;;;;;;;0.20;0.00;;;33.50;99.90;;;;;;26008854;22;20163;-71
2022/09/04 13:39:17;;;;;;;0.20;0.00;;;34.60;99.90;;;;;;26035821;22;20175;-69
2022/09/04 13:49:28;;;;;;;0.20;0.00;;;34.30;99.90;;;;;;26040514;22;20196;-71
2022/09/04 13:59:34;;;;;;;0.20;0.00;;;34.60;99.90;;;;;;26038940;22;20194;-71
2022/09/04 14:09:44;;;;;;;0.20;0.00;;;35.50;99.90;;;;;;26037522;22;20215;-72
2022/09/04 14:19:57;;;;;;;0.20;0.00;;;34.50;99.90;;;;;;26037782;22;20180;-71
2022/09/04 14:30:07;;;;;;;0.20;0.00;;;33.40;99.90;;;;;;26041966;22;20167;-73
2022/09/04 14:40:16;;;;;;;0.20;0.00;;;32.00;99.90;;;;;;26044534;22;20183;-71
2022/09/04 14:50:23;;;;;;;0.20;0.00;;;33.80;99.90;;;;;;26019618;22;20188;-71
2022/09/04 15:00:29;;;;;;;0.20;0.00;;;33.50;99.90;;;;;;26045523;22;20195;-72
2022/09/04 15:10:49;;;;;;;0.20;0.00;;;34.20;99.90;;;;;;26043150;22;20187;-72
2022/09/04 15:21:01;;;;;;;0.20;0.00;;;34.90;99.90;;;;;;26042799;22;20184;-72
2022/09/04 15:31:12;;;;;;;0.20;0.00;;;34.10;99.90;;;;;;26045200;22;20159;-72
2022/09/04 15:41:26;;;;;;;0.20;0.00;;;31.70;99.90;;;;;;26044219;22;20219;-71
2022/09/04 15:51:42;;;;;;;0.20;0.00;;;31.10;99.90;;;;;;26043599;22;20207;-72
2022/09/04 16:01:55;;;;;;;0.20;0.00;;;30.20;99.90;;;;;;26040207;22;20183;-73
2022/09/04 16:12:09;;;;;;;0.20;0.00;;;30.00;99.90;;;;;;26010905;22;20184;-71
2022/09/04 16:22:25;;;;;;;0.20;0.00;;;29.60;99.90;;;;;;26011090;22;20217;-71
2022/09/04 16:32:32;;;;;;;0.20;0.00;;;29.20;99.90;;;;;;26035599;22;20160;-73
2022/09/04 16:42:43;;;;;;;0.20;0.00;;;29.10;99.90;;;;;;26035654;22;20188;-72
2022/09/04 16:53:04;;;;;;;0.20;0.00;;;29.00;99.90;;;;;;26034941;22;20187;-73
2022/09/04 17:03:22;;;;;;;0.20;0.00;;;28.80;99.90;;;;;;26011321;22;20191;-71
2022/09/04 17:13:32;;;;;;;0.20;0.00;;;28.70;99.90;;;;;;26036524;22;20182;-71
2022/09/04 17:23:47;;;;;;;0.20;0.00;;;28.70;99.90;;;;;;26008088;22;20176;-73
2022/09/04 17:34:19;;;;;;;0.20;0.00;;;28.40;99.90;;;;;;26037011;22;20211;-70
2022/09/04 17:44:49;;;;;;;0.20;0.00;;;28.10;99.90;;;;;;26034882;22;20184;-71
2022/09/04 17:54:56;;;;;;;0.20;0.00;;;27.80;99.90;;;;;;26009018;22;20187;-71
2022/09/04 18:05:14;;;;;;;0.20;0.00;;;27.80;99.90;;;;;;26014838;22;20192;-71
2022/09/04 18:15:21;;;;;;;0.20;0.10;;;27.40;99.90;;;;;;26044122;22;20216;-71
2022/09/04 18:25:49;;;;;;;0.20;0.00;;;27.30;99.90;;;;;;26046364;22;20202;-71
2022/09/04 18:35:56;;;;;;;0.20;0.10;;;27.40;99.90;;;;;;26045459;22;20171;-72
2022/09/04 18:46:24;;;;;;;0.20;0.00;;;27.40;99.90;;;;;;26045374;22;20196;-71
2022/09/04 18:56:53;;;;;;;0.20;0.00;;;27.10;99.90;;;;;;26044018;22;20211;-73
2022/09/04 19:07:03;;;;;;;0.20;0.00;;;27.10;99.90;;;;;;26044542;22;20207;-72
2022/09/04 19:17:15;;;;;;;0.20;0.00;;;27.00;99.90;;;;;;26017555;22;20278;-72
2022/09/04 19:27:27;;;;;;;0.20;0.00;;;26.80;99.90;;;;;;26018731;22;20202;-68
2022/09/04 19:37:38;;;;;;;0.20;0.00;;;26.90;99.90;;;;;;26015690;22;20178;-72
2022/09/04 19:48:25;;;;;;;0.20;0.00;;;27.00;99.90;;;;;;26015554;22;20203;-71
2022/09/04 19:58:37;;;;;;;0.20;0.00;;;26.60;99.90;;;;;;26042740;22;20190;-72
2022/09/04 20:08:49;;;;;;;0.20;0.00;;;26.10;99.90;;;;;;26039832;22;20206;-72
2022/09/04 20:18:57;;;;;;;0.20;0.00;;;26.10;99.90;;;;;;26015153;22;20175;-72
2022/09/04 20:29:17;;;;;;;0.20;0.00;;;25.80;99.90;;;;;;26042677;22;20184;-73
2022/09/04 20:39:27;;;;;;;0.20;0.00;;;25.50;99.90;;;;;;26043620;22;20179;-72
2022/09/04 20:49:38;;;;;;;0.20;0.00;;;25.40;99.90;;;;;;26040487;22;20203;-72
2022/09/04 21:00:06;;;;;;;0.20;0.00;;;25.30;99.90;;;;;;26040524;22;20188;-71
2022/09/04 21:10:41;;;;;;;0.20;0.00;;;25.20;99.90;;;;;;26042863;22;20199;-72
2022/09/04 21:21:05;;;;;;;0.20;0.00;;;25.10;99.90;;;;;;26041625;22;20187;-71
2022/09/04 21:31:27;;;;;;;0.20;0.00;;;25.00;99.90;;;;;;26016641;22;20216;-71
2022/09/04 21:41:47;;;;;;;0.20;0.00;;;24.90;99.90;;;;;;26040999;22;20184;-73
2022/09/04 21:52:07;;;;;;;0.20;0.00;;;25.00;99.90;;;;;;26015190;22;20206;-71
2022/09/04 22:02:26;;;;;;;0.20;0.10;;;25.00;99.90;;;;;;26014961;22;20195;-71
2022/09/04 22:13:03;;;;;;;0.20;0.00;;;24.90;99.90;;;;;;26040968;22;20195;-74
2022/09/04 22:24:04;;;;;;;0.20;0.00;;;24.90;99.90;;;;;;26012194;22;20195;-72
2022/09/04 22:34:43;;;;;;;0.20;0.05;;;24.80;99.90;;;;;;26015372;22;20161;-71
2022/09/04 22:45:19;;;;;;;0.20;0.00;;;24.80;99.90;;;;;;26015091;22;20180;-71
2022/09/04 22:55:48;;;;;;;0.20;0.00;;;25.00;99.90;;;;;;26047458;22;20199;-71
2022/09/04 23:06:49;;;;;;;0.20;0.00;;;24.90;99.90;;;;;;26046427;22;20196;-72
2022/09/04 23:17:39;;;;;;;0.20;0.00;;;24.90;99.90;;;;;;26047145;22;20164;-71
2022/09/04 23:28:10;;;;;;;0.20;0.00;;;24.80;99.90;;;;;;26046503;22;20184;-72
2022/09/04 23:39:20;;;;;;;0.20;0.00;;;24.80;99.90;;;;;;26046443;22;20156;-71
2022/09/04 23:49:49;;;;;;;0.20;0.00;;;24.80;99.90;;;;;;26019484;22;20255;-72
